Time;durP1;ratioP1;P1;durP2;ratioP2;P2;SDS_P1;SDS_P2;PMS_P1;PMS_P2;Temp;Humidity;BMP_temperature;BMP_pressure;BME280_temperature;BME280_humidity;BME280_pressure;Samples;Min_cycle;Max_cycle;Signal;HPM_P1;HPM_P2
2022/01/24 00:02:02;;;;;;;0.60;0.60;;;;;;;;;;5091127;28;20263;-67
2022/01/24 00:04:28;;;;;;;0.60;0.60;;;;;;;;;;5091362;28;20471;-67
2022/01/24 00:06:54;;;;;;;0.70;0.70;;;;;;;;;;5091134;28;20190;-67
2022/01/24 00:09:20;;;;;;;0.60;0.60;;;;;;;;;;5073095;28;20451;-67
2022/01/24 00:14:53;;;;;;;0.60;0.60;;;;;;;;;;5091459;28;20178;-68
2022/01/24 00:17:32;;;;;;;0.70;0.70;;;;;;;;;;5086398;28;20542;-66
2022/01/24 00:28:08;;;;;;;0.70;0.70;;;;;;;;;;5091417;28;20615;-67
2022/01/24 00:30:34;;;;;;;0.53;0.53;;;;;;;;;;5091080;28;20197;-67
2022/01/24 00:33:00;;;;;;;0.60;0.60;;;;;;;;;;5091271;28;20864;-67
2022/01/24 00:35:26;;;;;;;0.50;0.50;;;;;;;;;;5091109;28;20213;-68
2022/01/24 00:37:52;;;;;;;0.60;0.60;;;;;;;;;;5091265;28;20435;-67
2022/01/24 00:40:18;;;;;;;0.60;0.60;;;;;;;;;;5091199;28;20421;-67
2022/01/24 00:42:57;;;;;;;0.60;0.60;;;;;;;;;;5090725;28;20580;-67
2022/01/24 00:56:10;;;;;;;0.60;0.60;;;;;;;;;;5091125;28;20183;-68
2022/01/24 00:58:36;;;;;;;0.70;0.70;;;;;;;;;;5090901;28;20191;-67
2022/01/24 01:01:09;;;;;;;0.50;0.50;;;;;;;;;;5091555;28;20204;-68
2022/01/24 01:03:35;;;;;;;0.70;0.70;;;;;;;;;;5092651;22;20288;-65
2022/01/24 01:06:05;;;;;;;0.55;0.55;;;;;;;;;;5070787;28;20182;-65
2022/01/24 01:19:30;;;;;;;0.70;0.70;;;;;;;;;;5070751;28;20249;-65
2022/01/24 01:21:56;;;;;;;0.60;0.60;;;;;;;;;;5070498;28;20278;-65
2022/01/24 01:24:24;;;;;;;0.60;0.60;;;;;;;;;;5069921;28;20209;-65
2022/01/24 01:26:56;;;;;;;0.60;0.60;;;;;;;;;;5070412;28;20198;-65
2022/01/24 01:29:28;;;;;;;0.70;0.70;;;;;;;;;;5070586;28;20240;-65
2022/01/24 01:32:09;;;;;;;0.60;0.60;;;;;;;;;;5070638;28;20278;-65
2022/01/24 01:34:56;;;;;;;0.70;0.70;;;;;;;;;;5072468;28;20642;-65
2022/01/24 01:37:39;;;;;;;0.60;0.60;;;;;;;;;;5070197;28;20179;-65
2022/01/24 01:56:06;;;;;;;0.70;0.70;;;;;;;;;;5074148;28;20175;-64
2022/01/24 01:58:32;;;;;;;0.80;0.80;;;;;;;;;;5073728;28;20712;-65
2022/01/24 02:00:59;;;;;;;0.70;0.70;;;;;;;;;;5073440;28;20216;-64
2022/01/24 02:03:26;;;;;;;0.60;0.60;;;;;;;;;;5073194;28;20211;-65
2022/01/24 02:05:52;;;;;;;0.60;0.60;;;;;;;;;;5072852;28;21926;-65
2022/01/24 02:08:18;;;;;;;0.60;0.60;;;;;;;;;;5073012;28;20240;-65
2022/01/24 02:10:45;;;;;;;0.70;0.70;;;;;;;;;;5073308;28;20296;-65
2022/01/24 02:13:11;;;;;;;0.55;0.55;;;;;;;;;;5072391;28;20241;-65
2022/01/24 02:25:59;;;;;;;0.70;0.70;;;;;;;;;;5073086;28;20211;-65
2022/01/24 02:28:29;;;;;;;0.70;0.70;;;;;;;;;;5072960;28;20178;-62
2022/01/24 02:33:33;;;;;;;0.60;0.60;;;;;;;;;;5055592;28;20211;-63
2022/01/24 02:35:59;;;;;;;0.70;0.70;;;;;;;;;;5072417;28;20254;-64
2022/01/24 02:49:12;;;;;;;0.70;0.70;;;;;;;;;;5076835;28;20317;-63
2022/01/24 02:51:47;;;;;;;0.60;0.60;;;;;;;;;;5072800;28;20272;-63
2022/01/24 02:54:22;;;;;;;0.70;0.70;;;;;;;;;;5070962;28;20585;-63
2022/01/24 02:56:48;;;;;;;0.60;0.60;;;;;;;;;;5072104;28;20669;-63
2022/01/24 02:59:14;;;;;;;0.60;0.60;;;;;;;;;;5072358;28;20206;-63
2022/01/24 03:01:44;;;;;;;0.60;0.60;;;;;;;;;;5071906;28;20278;-63
2022/01/24 03:04:10;;;;;;;0.60;0.60;;;;;;;;;;5071935;28;20463;-63
2022/01/24 03:06:36;;;;;;;0.70;0.70;;;;;;;;;;5072143;28;20677;-63
2022/01/24 03:09:02;;;;;;;0.60;0.60;;;;;;;;;;5072238;28;20402;-63
2022/01/24 03:11:49;;;;;;;0.70;0.70;;;;;;;;;;5072008;28;20207;-63
2022/01/24 03:14:14;;;;;;;0.60;0.60;;;;;;;;;;5071604;28;20192;-63
2022/01/24 03:16:40;;;;;;;0.60;0.60;;;;;;;;;;5071729;28;20321;-63
2022/01/24 03:19:07;;;;;;;0.68;0.68;;;;;;;;;;5071443;28;20574;-63
2022/01/24 03:21:33;;;;;;;0.60;0.60;;;;;;;;;;5071943;28;20199;-63
2022/01/24 03:23:59;;;;;;;0.70;0.70;;;;;;;;;;5053765;28;20171;-63
2022/01/24 03:26:25;;;;;;;0.60;0.60;;;;;;;;;;5072069;28;20848;-63
2022/01/24 03:28:51;;;;;;;0.60;0.60;;;;;;;;;;5071667;28;21000;-63
2022/01/24 03:31:17;;;;;;;0.70;0.70;;;;;;;;;;5071600;28;20473;-64
2022/01/24 03:33:43;;;;;;;0.60;0.60;;;;;;;;;;5071453;28;20467;-63
2022/01/24 03:36:08;;;;;;;0.60;0.60;;;;;;;;;;5071212;28;20457;-63
2022/01/24 03:38:34;;;;;;;0.60;0.60;;;;;;;;;;5053883;28;20410;-63
2022/01/24 03:41:00;;;;;;;0.67;0.67;;;;;;;;;;5071084;28;20429;-63
2022/01/24 03:43:27;;;;;;;0.60;0.60;;;;;;;;;;5071442;28;20461;-63
2022/01/24 03:48:40;;;;;;;0.60;0.60;;;;;;;;;;5071565;28;20183;-63
2022/01/24 03:51:07;;;;;;;0.60;0.60;;;;;;;;;;5071358;28;20289;-63
2022/01/24 03:53:33;;;;;;;0.60;0.60;;;;;;;;;;5070883;28;20203;-63
2022/01/24 03:55:59;;;;;;;0.50;0.50;;;;;;;;;;5070788;28;20233;-63
2022/01/24 03:58:24;;;;;;;0.70;0.70;;;;;;;;;;5071552;28;20175;-63
2022/01/24 04:00:51;;;;;;;0.60;0.60;;;;;;;;;;5071198;28;20429;-63
2022/01/24 04:03:16;;;;;;;0.70;0.70;;;;;;;;;;5070792;28;20495;-63
2022/01/24 04:05:43;;;;;;;0.60;0.60;;;;;;;;;;5055178;28;20187;-63
2022/01/24 04:08:09;;;;;;;0.63;0.63;;;;;;;;;;5071025;28;20913;-63
2022/01/24 04:10:42;;;;;;;0.60;0.60;;;;;;;;;;5071143;28;20269;-63
2022/01/24 04:13:22;;;;;;;0.60;0.60;;;;;;;;;;5070854;28;20202;-63
2022/01/24 04:23:48;;;;;;;0.60;0.60;;;;;;;;;;5070800;28;21019;-63
2022/01/24 04:26:14;;;;;;;0.60;0.60;;;;;;;;;;5071498;28;20323;-63
2022/01/24 04:28:40;;;;;;;0.60;0.60;;;;;;;;;;5070901;28;20777;-63
2022/01/24 04:31:07;;;;;;;0.70;0.70;;;;;;;;;;5070828;28;20605;-63
2022/01/24 04:33:33;;;;;;;0.60;0.60;;;;;;;;;;5070988;28;20194;-63
2022/01/24 04:35:59;;;;;;;0.70;0.70;;;;;;;;;;5071004;28;20190;-63
2022/01/24 04:38:25;;;;;;;0.70;0.70;;;;;;;;;;5069459;28;20167;-63
2022/01/24 04:40:59;;;;;;;0.70;0.70;;;;;;;;;;5070725;28;20182;-63
2022/01/24 04:46:09;;;;;;;0.60;0.60;;;;;;;;;;5070488;28;20230;-63
2022/01/24 04:56:37;;;;;;;0.70;0.70;;;;;;;;;;5051084;28;20203;-63
2022/01/24 04:59:03;;;;;;;0.60;0.60;;;;;;;;;;5050845;28;20168;-62
2022/01/24 05:01:29;;;;;;;0.60;0.60;;;;;;;;;;5061796;28;20180;-63
2022/01/24 05:03:55;;;;;;;0.60;0.60;;;;;;;;;;5070667;28;20642;-63
2022/01/24 05:06:21;;;;;;;0.60;0.60;;;;;;;;;;5033447;28;20318;-63
2022/01/24 05:08:47;;;;;;;0.70;0.70;;;;;;;;;;5051373;28;20470;-63
2022/01/24 05:11:18;;;;;;;0.70;0.70;;;;;;;;;;5054419;28;20454;-63
2022/01/24 05:24:30;;;;;;;0.80;0.80;;;;;;;;;;5072479;28;20187;-63
2022/01/24 05:26:56;;;;;;;0.60;0.60;;;;;;;;;;5073161;28;20228;-63
2022/01/24 05:29:22;;;;;;;0.60;0.60;;;;;;;;;;5074126;28;20559;-63
2022/01/24 05:31:48;;;;;;;0.60;0.60;;;;;;;;;;5073938;28;20191;-63
2022/01/24 05:34:14;;;;;;;0.60;0.60;;;;;;;;;;5070156;28;20449;-63
2022/01/24 05:36:40;;;;;;;0.63;0.63;;;;;;;;;;5066057;28;20643;-63
2022/01/24 05:39:06;;;;;;;0.60;0.60;;;;;;;;;;5074012;28;21066;-63
2022/01/24 05:41:32;;;;;;;0.60;0.60;;;;;;;;;;5074018;28;20442;-63
2022/01/24 05:43:58;;;;;;;0.70;0.70;;;;;;;;;;5066943;28;20179;-63
2022/01/24 05:46:24;;;;;;;0.60;0.60;;;;;;;;;;5070143;28;20209;-63
2022/01/24 05:48:52;;;;;;;0.60;0.60;;;;;;;;;;5073798;28;20183;-63
2022/01/24 05:51:20;;;;;;;0.60;0.60;;;;;;;;;;5073519;28;20198;-63
2022/01/24 05:53:46;;;;;;;0.65;0.65;;;;;;;;;;5063642;28;20230;-63
2022/01/24 05:56:12;;;;;;;0.50;0.50;;;;;;;;;;5063441;28;20245;-63
2022/01/24 05:58:38;;;;;;;0.60;0.60;;;;;;;;;;5055526;28;20183;-63
2022/01/24 06:01:04;;;;;;;0.70;0.70;;;;;;;;;;5082689;28;20803;-63
2022/01/24 06:03:30;;;;;;;0.70;0.70;;;;;;;;;;5073451;28;20867;-63
2022/01/24 06:05:56;;;;;;;0.60;0.60;;;;;;;;;;5073493;28;20278;-63
2022/01/24 06:08:22;;;;;;;0.60;0.60;;;;;;;;;;5071966;28;20265;-63
2022/01/24 06:10:48;;;;;;;0.60;0.60;;;;;;;;;;5072337;28;20491;-63
2022/01/24 06:13:15;;;;;;;0.63;0.63;;;;;;;;;;5072807;28;20199;-63
2022/01/24 06:15:42;;;;;;;0.60;0.60;;;;;;;;;;5073270;28;20179;-63
2022/01/24 06:18:08;;;;;;;0.75;0.75;;;;;;;;;;5073226;28;20178;-63
2022/01/24 06:20:34;;;;;;;0.60;0.60;;;;;;;;;;5067729;28;20176;-63
2022/01/24 06:23:00;;;;;;;0.60;0.60;;;;;;;;;;5066171;28;20453;-63
2022/01/24 06:25:28;;;;;;;0.60;0.60;;;;;;;;;;5072711;28;20417;-63
2022/01/24 06:27:54;;;;;;;0.60;0.60;;;;;;;;;;5072932;28;20179;-63
2022/01/24 06:30:20;;;;;;;0.60;0.60;;;;;;;;;;5073279;28;20215;-65
2022/01/24 06:32:46;;;;;;;0.68;0.68;;;;;;;;;;5065205;28;20431;-64
2022/01/24 06:35:12;;;;;;;0.60;0.60;;;;;;;;;;5055282;28;20168;-64
2022/01/24 06:37:39;;;;;;;0.60;0.60;;;;;;;;;;5071992;28;20435;-63
2022/01/24 06:40:06;;;;;;;0.60;0.60;;;;;;;;;;5072674;28;20239;-64
2022/01/24 06:42:32;;;;;;;0.60;0.60;;;;;;;;;;5072267;28;20199;-63
2022/01/24 06:44:58;;;;;;;0.60;0.60;;;;;;;;;;5072588;28;20191;-64
2022/01/24 06:47:24;;;;;;;0.60;0.60;;;;;;;;;;5072931;28;21128;-64
2022/01/24 06:49:50;;;;;;;0.60;0.60;;;;;;;;;;5072379;28;20199;-64
2022/01/24 06:52:17;;;;;;;0.60;0.60;;;;;;;;;;5072814;28;20286;-64
2022/01/24 06:54:43;;;;;;;0.60;0.60;;;;;;;;;;5054522;28;20175;-64
2022/01/24 06:57:13;;;;;;;0.70;0.70;;;;;;;;;;5072529;28;20175;-64
2022/01/24 06:59:40;;;;;;;0.60;0.60;;;;;;;;;;5072114;28;20554;-64
2022/01/24 07:02:06;;;;;;;0.60;0.60;;;;;;;;;;5096676;22;20246;-68
2022/01/24 07:04:32;;;;;;;0.70;0.70;;;;;;;;;;5076363;28;20209;-66
2022/01/24 07:06:58;;;;;;;0.50;0.50;;;;;;;;;;5072633;28;20170;-67
2022/01/24 07:09:24;;;;;;;0.60;0.60;;;;;;;;;;5072135;28;20284;-67
2022/01/24 07:11:51;;;;;;;0.60;0.60;;;;;;;;;;5052798;28;21057;-67
2022/01/24 07:14:17;;;;;;;0.70;0.70;;;;;;;;;;5071651;28;21015;-67
2022/01/24 07:19:35;;;;;;;0.60;0.60;;;;;;;;;;5048516;28;20545;-67
2022/01/24 07:22:04;;;;;;;0.60;0.60;;;;;;;;;;5071999;28;20187;-67
2022/01/24 07:24:29;;;;;;;0.50;0.50;;;;;;;;;;5071963;28;20167;-67
2022/01/24 07:26:55;;;;;;;0.50;0.50;;;;;;;;;;5072080;28;20542;-68
2022/01/24 07:29:22;;;;;;;0.60;0.60;;;;;;;;;;5072106;28;20398;-69
2022/01/24 07:31:48;;;;;;;0.50;0.50;;;;;;;;;;5071297;28;20291;-67
2022/01/24 07:34:14;;;;;;;0.70;0.70;;;;;;;;;;5071893;28;20255;-67
2022/01/24 07:36:40;;;;;;;0.60;0.60;;;;;;;;;;5071995;28;20597;-68
2022/01/24 07:39:06;;;;;;;0.60;0.60;;;;;;;;;;5071896;28;20203;-67
2022/01/24 07:41:34;;;;;;;0.70;0.70;;;;;;;;;;5071792;28;20402;-67
2022/01/24 07:44:01;;;;;;;0.60;0.60;;;;;;;;;;5071582;28;20456;-67
2022/01/24 07:46:28;;;;;;;0.60;0.60;;;;;;;;;;5071909;28;20178;-67
2022/01/24 07:48:54;;;;;;;0.50;0.50;;;;;;;;;;5071745;28;20163;-69
2022/01/24 07:51:20;;;;;;;0.60;0.60;;;;;;;;;;5071748;28;20252;-68
2022/01/24 07:53:46;;;;;;;0.60;0.60;;;;;;;;;;5071387;28;20413;-68
2022/01/24 07:56:12;;;;;;;0.60;0.60;;;;;;;;;;5071843;28;20692;-68
2022/01/24 07:58:41;;;;;;;0.50;0.50;;;;;;;;;;5071863;28;20397;-67
2022/01/24 08:01:07;;;;;;;0.60;0.60;;;;;;;;;;5071761;28;20171;-68
2022/01/24 08:03:33;;;;;;;0.60;0.60;;;;;;;;;;5071407;28;20206;-67
2022/01/24 08:05:58;;;;;;;0.60;0.60;;;;;;;;;;5071614;28;20658;-67
2022/01/24 08:08:24;;;;;;;0.60;0.60;;;;;;;;;;5071476;28;20406;-66
2022/01/24 08:10:50;;;;;;;0.60;0.60;;;;;;;;;;5069714;28;20560;-67
2022/01/24 08:13:16;;;;;;;0.60;0.60;;;;;;;;;;5070810;28;20423;-67
2022/01/24 08:15:42;;;;;;;0.70;0.70;;;;;;;;;;5071553;28;20454;-67
2022/01/24 08:18:09;;;;;;;0.60;0.60;;;;;;;;;;5070972;28;20444;-67
2022/01/24 08:20:35;;;;;;;0.50;0.50;;;;;;;;;;5071356;28;20190;-67
2022/01/24 08:23:02;;;;;;;0.55;0.55;;;;;;;;;;5070911;28;20195;-67
2022/01/24 08:25:28;;;;;;;0.65;0.65;;;;;;;;;;5071125;28;20175;-68
2022/01/24 08:27:54;;;;;;;0.70;0.70;;;;;;;;;;5070959;28;20519;-68
2022/01/24 08:30:21;;;;;;;0.60;0.60;;;;;;;;;;5070746;28;20482;-67
2022/01/24 08:32:47;;;;;;;0.60;0.60;;;;;;;;;;5066998;28;20192;-67
2022/01/24 08:35:14;;;;;;;0.60;0.60;;;;;;;;;;5051169;28;20547;-67
2022/01/24 08:37:40;;;;;;;0.60;0.60;;;;;;;;;;5050811;28;20175;-67
2022/01/24 08:40:08;;;;;;;0.50;0.50;;;;;;;;;;5050851;28;20187;-67
2022/01/24 08:42:41;;;;;;;0.50;0.50;;;;;;;;;;5052306;28;20219;-67
2022/01/24 08:47:52;;;;;;;0.50;0.50;;;;;;;;;;5055612;28;20375;-67
2022/01/24 08:50:24;;;;;;;0.50;0.50;;;;;;;;;;5054822;28;20292;-68
2022/01/24 08:52:50;;;;;;;0.65;0.65;;;;;;;;;;5054654;28;20426;-68
2022/01/24 08:55:16;;;;;;;0.50;0.50;;;;;;;;;;5055247;28;20169;-68
2022/01/24 08:57:42;;;;;;;0.50;0.50;;;;;;;;;;5055386;28;20527;-67
2022/01/24 09:00:08;;;;;;;0.50;0.50;;;;;;;;;;5055171;28;20176;-67
2022/01/24 09:02:35;;;;;;;0.60;0.60;;;;;;;;;;5054598;28;20449;-68
2022/01/24 09:05:01;;;;;;;0.52;0.52;;;;;;;;;;5037697;28;20177;-67
2022/01/24 09:07:29;;;;;;;0.60;0.60;;;;;;;;;;5055779;28;20290;-68
2022/01/24 09:09:55;;;;;;;0.60;0.60;;;;;;;;;;5055866;28;20216;-68
2022/01/24 09:12:21;;;;;;;0.60;0.60;;;;;;;;;;5055432;28;20195;-66
2022/01/24 09:14:47;;;;;;;0.50;0.50;;;;;;;;;;5054929;28;20168;-69
2022/01/24 09:17:15;;;;;;;0.60;0.60;;;;;;;;;;5054872;28;20495;-69
2022/01/24 09:19:41;;;;;;;0.60;0.60;;;;;;;;;;5054362;28;20177;-68
2022/01/24 09:22:07;;;;;;;0.60;0.60;;;;;;;;;;5054535;28;20771;-68
2022/01/24 09:24:33;;;;;;;0.60;0.60;;;;;;;;;;5036321;28;20546;-67
2022/01/24 09:26:59;;;;;;;0.60;0.60;;;;;;;;;;5036036;28;20626;-67
2022/01/24 09:29:25;;;;;;;0.60;0.60;;;;;;;;;;5054395;28;20173;-66
2022/01/24 09:31:51;;;;;;;0.40;0.40;;;;;;;;;;5054277;28;20165;-67
2022/01/24 09:34:20;;;;;;;0.50;0.50;;;;;;;;;;5054187;28;20881;-67
2022/01/24 09:36:47;;;;;;;0.50;0.50;;;;;;;;;;5054232;28;20416;-66
2022/01/24 09:39:13;;;;;;;0.55;0.55;;;;;;;;;;5054143;28;20167;-66
2022/01/24 09:41:40;;;;;;;0.55;0.55;;;;;;;;;;5054093;28;20169;-66
2022/01/24 09:44:06;;;;;;;0.60;0.60;;;;;;;;;;5053797;28;20585;-66
2022/01/24 09:46:34;;;;;;;0.60;0.60;;;;;;;;;;5054025;28;20652;-68
2022/01/24 09:49:00;;;;;;;0.60;0.60;;;;;;;;;;5053987;28;20256;-67
2022/01/24 09:51:26;;;;;;;0.50;0.50;;;;;;;;;;5053857;28;20340;-66
2022/01/24 09:53:52;;;;;;;0.50;0.50;;;;;;;;;;5052865;28;20433;-66
2022/01/24 09:56:19;;;;;;;0.50;0.50;;;;;;;;;;5054060;28;20411;-66
2022/01/24 09:58:45;;;;;;;0.60;0.60;;;;;;;;;;5057066;28;20185;-66
2022/01/24 10:01:13;;;;;;;0.60;0.60;;;;;;;;;;5054242;28;20189;-65
2022/01/24 10:03:39;;;;;;;0.50;0.50;;;;;;;;;;5053638;28;20209;-66
2022/01/24 10:06:05;;;;;;;0.60;0.60;;;;;;;;;;5053944;28;20866;-67
2022/01/24 10:08:31;;;;;;;0.50;0.50;;;;;;;;;;5053754;28;20628;-66
2022/01/24 10:10:59;;;;;;;0.60;0.60;;;;;;;;;;5053859;28;20572;-68
2022/01/24 10:16:25;;;;;;;0.50;0.50;;;;;;;;;;5053765;28;20232;-66
2022/01/24 10:19:08;;;;;;;0.50;0.50;;;;;;;;;;5053561;28;20175;-67
2022/01/24 10:21:44;;;;;;;0.55;0.55;;;;;;;;;;5035554;28;20273;-67
2022/01/24 10:24:12;;;;;;;0.70;0.70;;;;;;;;;;5053397;28;20187;-67
2022/01/24 10:26:38;;;;;;;0.60;0.60;;;;;;;;;;5053419;28;20177;-67
2022/01/24 10:29:11;;;;;;;0.50;0.50;;;;;;;;;;5053460;28;20193;-67
2022/01/24 10:31:44;;;;;;;0.60;0.60;;;;;;;;;;5035392;28;20206;-67
2022/01/24 10:34:22;;;;;;;0.50;0.50;;;;;;;;;;5052939;28;20594;-68
2022/01/24 10:36:52;;;;;;;0.50;0.50;;;;;;;;;;5053498;28;20270;-66
2022/01/24 10:39:20;;;;;;;0.55;0.55;;;;;;;;;;5053119;28;20180;-66
2022/01/24 10:44:26;;;;;;;0.60;0.60;;;;;;;;;;5052958;28;20217;-67
2022/01/24 10:46:52;;;;;;;0.50;0.50;;;;;;;;;;5053301;28;20258;-66
2022/01/24 10:49:30;;;;;;;0.60;0.60;;;;;;;;;;5053113;28;20214;-66
2022/01/24 10:52:08;;;;;;;0.50;0.50;;;;;;;;;;5052963;28;20417;-66
2022/01/24 10:54:35;;;;;;;0.60;0.60;;;;;;;;;;5052876;28;20535;-66
2022/01/24 10:57:00;;;;;;;0.50;0.50;;;;;;;;;;5052940;28;20185;-65
2022/01/24 10:59:26;;;;;;;0.60;0.60;;;;;;;;;;5052884;28;20192;-67
2022/01/24 11:01:53;;;;;;;0.70;0.70;;;;;;;;;;5052594;28;20399;-66
2022/01/24 11:04:20;;;;;;;0.52;0.52;;;;;;;;;;5052451;28;20802;-66
2022/01/24 11:06:47;;;;;;;0.50;0.50;;;;;;;;;;5052526;28;20185;-67
2022/01/24 11:09:23;;;;;;;0.50;0.50;;;;;;;;;;5052484;28;20180;-66
2022/01/24 11:11:51;;;;;;;0.60;0.60;;;;;;;;;;5052400;28;20201;-66
2022/01/24 11:14:19;;;;;;;0.50;0.50;;;;;;;;;;5052243;28;20175;-67
2022/01/24 11:16:45;;;;;;;0.60;0.60;;;;;;;;;;5052438;28;20162;-67
2022/01/24 11:19:20;;;;;;;0.50;0.50;;;;;;;;;;5052228;28;20168;-67
2022/01/24 11:21:46;;;;;;;0.50;0.50;;;;;;;;;;5052328;28;20543;-67
2022/01/24 11:24:18;;;;;;;0.40;0.40;;;;;;;;;;5051984;28;20176;-67
2022/01/24 11:26:44;;;;;;;0.40;0.40;;;;;;;;;;5052482;28;20262;-67
2022/01/24 11:29:11;;;;;;;0.40;0.40;;;;;;;;;;5052179;28;20209;-67
2022/01/24 11:31:56;;;;;;;0.40;0.40;;;;;;;;;;5052160;28;20484;-67
2022/01/24 11:34:31;;;;;;;0.40;0.40;;;;;;;;;;5051863;28;20504;-67
2022/01/24 11:36:58;;;;;;;0.40;0.40;;;;;;;;;;5054152;28;20372;-67
2022/01/24 11:39:24;;;;;;;0.40;0.40;;;;;;;;;;5071799;28;20390;-67
2022/01/24 11:41:51;;;;;;;0.40;0.40;;;;;;;;;;5071986;28;20409;-67
2022/01/24 11:44:18;;;;;;;0.40;0.40;;;;;;;;;;5071641;28;20405;-67
2022/01/24 11:46:48;;;;;;;0.30;0.30;;;;;;;;;;5071934;28;20440;-66
2022/01/24 11:49:17;;;;;;;0.40;0.40;;;;;;;;;;5071752;28;20398;-66
2022/01/24 11:51:45;;;;;;;0.40;0.40;;;;;;;;;;5071639;28;20486;-67
2022/01/24 11:54:31;;;;;;;0.30;0.30;;;;;;;;;;5071528;28;20928;-67
2022/01/24 11:57:16;;;;;;;0.30;0.30;;;;;;;;;;5071775;28;21135;-67
2022/01/24 11:59:42;;;;;;;0.30;0.30;;;;;;;;;;5071557;28;20419;-66
2022/01/24 12:02:12;;;;;;;0.30;0.30;;;;;;;;;;5071562;28;20601;-67
2022/01/24 12:05:00;;;;;;;0.40;0.40;;;;;;;;;;5071551;28;20425;-66
2022/01/24 12:07:31;;;;;;;0.30;0.30;;;;;;;;;;5071121;28;20390;-64
2022/01/24 12:10:17;;;;;;;0.40;0.40;;;;;;;;;;5071476;28;20453;-68
2022/01/24 12:12:48;;;;;;;0.33;0.33;;;;;;;;;;5071307;28;20431;-68
2022/01/24 12:15:32;;;;;;;0.30;0.30;;;;;;;;;;5053620;28;20411;-68
2022/01/24 12:18:01;;;;;;;0.40;0.40;;;;;;;;;;5070687;28;20458;-67
2022/01/24 12:20:30;;;;;;;0.40;0.40;;;;;;;;;;5071764;28;20901;-68
2022/01/24 12:22:57;;;;;;;0.30;0.30;;;;;;;;;;5069903;28;20915;-67
2022/01/24 12:25:42;;;;;;;0.40;0.40;;;;;;;;;;5070772;28;20388;-66
2022/01/24 12:28:17;;;;;;;0.40;0.40;;;;;;;;;;5071099;28;20404;-66
2022/01/24 12:31:02;;;;;;;0.40;0.40;;;;;;;;;;5070817;28;20501;-66
2022/01/24 12:33:40;;;;;;;0.40;0.40;;;;;;;;;;5070999;28;20403;-67
2022/01/24 12:36:07;;;;;;;0.40;0.40;;;;;;;;;;5071424;28;20399;-66
2022/01/24 12:38:48;;;;;;;0.40;0.40;;;;;;;;;;5071213;28;20429;-67
2022/01/24 12:41:20;;;;;;;0.40;0.40;;;;;;;;;;5070805;28;20404;-67
2022/01/24 12:46:30;;;;;;;0.40;0.40;;;;;;;;;;5071324;28;20904;-67
2022/01/24 12:48:57;;;;;;;0.40;0.40;;;;;;;;;;5070973;28;20483;-67
2022/01/24 12:51:28;;;;;;;0.40;0.40;;;;;;;;;;5070474;28;20432;-67
2022/01/24 12:53:55;;;;;;;0.40;0.40;;;;;;;;;;5073106;28;20426;-66
2022/01/24 12:56:25;;;;;;;0.40;0.40;;;;;;;;;;5071380;28;20398;-65
2022/01/24 12:58:51;;;;;;;0.40;0.40;;;;;;;;;;5071060;28;20408;-65
2022/01/24 13:01:19;;;;;;;0.40;0.40;;;;;;;;;;5053245;28;20824;-65
2022/01/24 13:03:57;;;;;;;0.40;0.40;;;;;;;;;;5110196;22;20465;-63
2022/01/24 13:06:25;;;;;;;0.40;0.40;;;;;;;;;;5111097;28;20426;-69
2022/01/24 13:08:57;;;;;;;0.40;0.40;;;;;;;;;;5093803;28;20532;-65
2022/01/24 13:11:23;;;;;;;0.40;0.40;;;;;;;;;;5111733;28;20418;-63
2022/01/24 13:13:58;;;;;;;0.40;0.40;;;;;;;;;;5111067;28;20429;-63
2022/01/24 13:22:22;;;;;;;0.50;0.50;;;;;;;;;;5111683;28;20613;-63
2022/01/24 13:25:03;;;;;;;0.40;0.40;;;;;;;;;;5110984;28;20173;-62
2022/01/24 13:27:37;;;;;;;0.40;0.40;;;;;;;;;;5111643;28;20174;-63
2022/01/24 13:30:05;;;;;;;0.40;0.40;;;;;;;;;;5113642;28;20263;-63
2022/01/24 13:32:44;;;;;;;0.40;0.40;;;;;;;;;;5114557;28;20190;-63
2022/01/24 13:35:14;;;;;;;0.40;0.40;;;;;;;;;;5115070;28;20258;-65
2022/01/24 13:37:40;;;;;;;0.40;0.40;;;;;;;;;;5114818;28;20176;-63
2022/01/24 13:40:06;;;;;;;0.40;0.40;;;;;;;;;;5115437;28;20586;-65
2022/01/24 13:42:36;;;;;;;0.40;0.40;;;;;;;;;;5096657;28;20284;-63
2022/01/24 13:45:02;;;;;;;0.50;0.50;;;;;;;;;;5114913;28;20176;-63
2022/01/24 13:47:28;;;;;;;0.40;0.40;;;;;;;;;;5114798;28;20178;-63
2022/01/24 13:49:54;;;;;;;0.50;0.50;;;;;;;;;;5115175;28;20193;-63
2022/01/24 13:52:21;;;;;;;0.40;0.40;;;;;;;;;;5115040;28;20461;-63
2022/01/24 13:54:47;;;;;;;0.50;0.50;;;;;;;;;;5115076;28;20396;-63
2022/01/24 13:57:17;;;;;;;0.40;0.40;;;;;;;;;;5114509;28;20197;-63
2022/01/24 13:59:43;;;;;;;0.50;0.50;;;;;;;;;;5096168;28;20468;-63
2022/01/24 14:02:14;;;;;;;0.40;0.40;;;;;;;;;;5114744;28;20261;-63
2022/01/24 14:04:52;;;;;;;0.50;0.50;;;;;;;;;;5114366;28;20433;-63
2022/01/24 14:07:23;;;;;;;0.50;0.50;;;;;;;;;;5105457;28;20217;-63
2022/01/24 14:09:50;;;;;;;0.40;0.40;;;;;;;;;;5094130;28;20181;-63
2022/01/24 14:12:17;;;;;;;0.50;0.50;;;;;;;;;;5094229;28;20170;-63
2022/01/24 14:14:51;;;;;;;0.50;0.50;;;;;;;;;;5093964;28;20174;-63
2022/01/24 14:17:26;;;;;;;0.50;0.50;;;;;;;;;;5094102;28;20166;-63
2022/01/24 14:19:56;;;;;;;0.40;0.40;;;;;;;;;;5094354;28;20158;-63
2022/01/24 14:22:23;;;;;;;0.50;0.50;;;;;;;;;;5093830;28;20200;-63
2022/01/24 14:24:50;;;;;;;0.40;0.40;;;;;;;;;;5075618;28;20167;-62
2022/01/24 14:27:35;;;;;;;0.50;0.50;;;;;;;;;;5093948;28;20665;-63
2022/01/24 14:30:21;;;;;;;0.40;0.40;;;;;;;;;;5093838;28;20217;-63
2022/01/24 14:33:02;;;;;;;0.50;0.50;;;;;;;;;;5093627;28;20197;-63
2022/01/24 14:35:30;;;;;;;0.50;0.50;;;;;;;;;;5093766;28;20534;-63
2022/01/24 14:37:58;;;;;;;0.40;0.40;;;;;;;;;;5093641;28;20257;-63
2022/01/24 14:40:45;;;;;;;0.50;0.50;;;;;;;;;;5075235;28;20174;-63
2022/01/24 14:45:58;;;;;;;0.40;0.40;;;;;;;;;;5093800;28;20752;-63
2022/01/24 14:48:24;;;;;;;0.50;0.50;;;;;;;;;;5093203;28;20629;-63
2022/01/24 14:50:50;;;;;;;0.50;0.50;;;;;;;;;;5093453;28;20208;-63
2022/01/24 14:53:17;;;;;;;0.40;0.40;;;;;;;;;;5076426;28;20496;-63
2022/01/24 14:55:43;;;;;;;0.47;0.47;;;;;;;;;;5094605;28;20177;-63
2022/01/24 14:58:09;;;;;;;0.50;0.50;;;;;;;;;;5113650;28;20174;-63
2022/01/24 15:00:35;;;;;;;0.50;0.50;;;;;;;;;;5113577;28;20177;-63
2022/01/24 15:03:01;;;;;;;0.40;0.40;;;;;;;;;;5112899;28;20588;-63
2022/01/24 15:05:27;;;;;;;0.50;0.50;;;;;;;;;;5094707;28;20174;-62
2022/01/24 15:07:53;;;;;;;0.40;0.40;;;;;;;;;;5111412;28;20455;-63
2022/01/24 15:10:19;;;;;;;0.50;0.50;;;;;;;;;;5094995;28;21151;-62
2022/01/24 15:12:51;;;;;;;0.50;0.50;;;;;;;;;;5113005;28;20193;-63
2022/01/24 15:15:20;;;;;;;0.50;0.50;;;;;;;;;;5113234;28;20781;-62
2022/01/24 15:23:58;;;;;;;0.40;0.40;;;;;;;;;;5094867;28;20173;-63
2022/01/24 15:26:01;;;;;;;0.50;0.50;;;;;;;;;;5113061;28;20192;-63
2022/01/24 15:28:27;;;;;;;0.57;0.57;;;;;;;;;;5112889;28;20180;-63
2022/01/24 15:30:53;;;;;;;0.45;0.45;;;;;;;;;;5112370;28;20208;-63
2022/01/24 15:33:19;;;;;;;0.50;0.50;;;;;;;;;;5112419;28;20844;-63
2022/01/24 15:35:45;;;;;;;0.50;0.50;;;;;;;;;;5094564;28;20411;-63
2022/01/24 15:38:11;;;;;;;0.50;0.50;;;;;;;;;;5094583;28;20490;-63
2022/01/24 15:40:39;;;;;;;0.40;0.40;;;;;;;;;;5105973;28;20434;-63
2022/01/24 15:43:25;;;;;;;0.60;0.60;;;;;;;;;;5092481;28;20202;-63
2022/01/24 15:48:17;;;;;;;0.60;0.60;;;;;;;;;;5092391;28;20663;-63
2022/01/24 15:50:44;;;;;;;0.50;0.50;;;;;;;;;;5092155;28;20939;-63
2022/01/24 15:53:10;;;;;;;0.50;0.50;;;;;;;;;;5088354;28;20443;-63
2022/01/24 15:55:40;;;;;;;0.50;0.50;;;;;;;;;;5091801;28;20172;-63
2022/01/24 15:58:06;;;;;;;0.50;0.50;;;;;;;;;;5092083;28;20639;-63
2022/01/24 16:00:34;;;;;;;0.50;0.50;;;;;;;;;;5092103;28;20174;-63
2022/01/24 16:03:03;;;;;;;0.50;0.50;;;;;;;;;;5073481;28;20246;-63
2022/01/24 16:05:29;;;;;;;0.50;0.50;;;;;;;;;;5091920;28;20181;-63
2022/01/24 16:07:56;;;;;;;0.50;0.50;;;;;;;;;;5091548;28;20656;-64
2022/01/24 16:10:23;;;;;;;0.50;0.50;;;;;;;;;;5091634;28;20546;-63
2022/01/24 16:12:50;;;;;;;0.60;0.60;;;;;;;;;;5091329;28;20604;-63
2022/01/24 16:15:18;;;;;;;0.50;0.50;;;;;;;;;;5091517;28;20229;-63
2022/01/24 16:17:45;;;;;;;0.50;0.50;;;;;;;;;;5091837;28;20179;-63
2022/01/24 16:20:21;;;;;;;0.43;0.43;;;;;;;;;;5091380;28;20175;-63
2022/01/24 16:25:39;;;;;;;0.52;0.52;;;;;;;;;;5091367;28;20659;-63
2022/01/24 16:28:11;;;;;;;0.55;0.55;;;;;;;;;;5091584;28;20190;-63
2022/01/24 16:30:42;;;;;;;0.50;0.50;;;;;;;;;;5091721;28;20251;-63
2022/01/24 16:33:08;;;;;;;0.50;0.50;;;;;;;;;;5091069;28;20199;-63
2022/01/24 16:35:35;;;;;;;0.50;0.50;;;;;;;;;;5091582;28;20646;-63
2022/01/24 16:38:01;;;;;;;0.60;0.60;;;;;;;;;;5090884;28;20187;-63
2022/01/24 16:40:30;;;;;;;0.50;0.50;;;;;;;;;;5091457;28;20539;-62
2022/01/24 16:43:16;;;;;;;0.50;0.50;;;;;;;;;;5090964;28;20305;-62
2022/01/24 16:48:27;;;;;;;0.57;0.57;;;;;;;;;;5091204;28;20186;-63
2022/01/24 16:50:53;;;;;;;0.60;0.60;;;;;;;;;;5091181;28;20202;-63
2022/01/24 16:53:20;;;;;;;0.60;0.60;;;;;;;;;;5091289;28;20199;-62
2022/01/24 16:55:47;;;;;;;0.50;0.50;;;;;;;;;;5072983;28;20514;-62
2022/01/24 16:58:14;;;;;;;0.50;0.50;;;;;;;;;;5090886;28;20201;-63
2022/01/24 17:00:40;;;;;;;0.50;0.50;;;;;;;;;;5090798;28;20180;-63
2022/01/24 17:03:05;;;;;;;0.60;0.60;;;;;;;;;;5073248;28;20344;-63
2022/01/24 17:05:31;;;;;;;0.50;0.50;;;;;;;;;;5094512;28;20262;-63
2022/01/24 17:07:58;;;;;;;0.50;0.50;;;;;;;;;;5094973;28;20420;-63
2022/01/24 17:10:24;;;;;;;0.60;0.60;;;;;;;;;;5094122;28;20596;-62
2022/01/24 17:12:50;;;;;;;0.50;0.50;;;;;;;;;;5094736;28;20191;-63